Latest Weather Observations for Browse Island

IDW60801

Issued at 3:35 pm WST Sunday 21 September 2014 (issued every 30 minutes, with the page automatically refreshed every 10 minutes)

About weather observations | Map of weather stations | Latest weather observations for WA | Other Formats
Station Details ID: 200784 Name: BROWSE ISLAND Lat: -14.11 Lon: 123.55 Height: 3.7 m
Data from the previous 72 hours. | See also: Recent months for locations in Western Australia
Date/Time
WST
Temp
°C
App
Temp
°C
Dew
Point
Rel
Hum
%
Delta-T
°C
Wind Press
QNH
hPa
Press
MSL
hPa
Rain
since 9 am
mm
Dir
 
Spd
km/h
Gust
km/h
Spd
kts
Gust
kts
21/03:30pm 28.0 - - - - WSW 15 17 8 9 1012.0 - -
21/03:00pm 28.1 - - - - WSW 11 11 6 6 1012.0 1012.3 -
21/02:30pm 28.0 - - - - W 9 - 5 - 1012.0 - -
21/02:00pm 28.0 - - - - WSW 9 - 5 - 1012.0 1012.6 -
21/01:30pm 28.0 - - - - WSW 7 - 4 - 1013.0 - -
21/01:00pm 28.5 - - - - SW 7 - 4 - 1013.0 1013.3 -
21/12:30pm 28.0 - - - - SSW 9 - 5 - 1013.0 - -
21/12:00pm 27.9 - - - - SW 9 - 5 - 1014.0 1014.0 -
21/11:30am 28.0 - - - - SSW 11 - 6 - 1014.0 - -
21/11:00am 27.4 - - - - SSW 9 - 5 - 1014.0 1014.7 -
21/10:30am 28.0 - - - - WSW 9 - 5 - 1015.0 - -
21/10:00am 27.8 - - - - W 9 - 5 - 1015.0 1015.6 -
21/09:30am 28.0 - - - - WSW 9 - 5 - 1015.0 - -
21/09:00am 27.5 - - - - SW 9 - 5 - 1016.0 1015.9 -
21/08:30am 27.0 - - - - SSW 11 - 6 - 1016.0 - -
21/08:00am 26.8 - - - - SSW 13 - 7 - 1015.0 1015.6 -
21/07:30am 27.0 - - - - S 13 - 7 - 1015.0 - -
21/07:00am 26.7 - - - - S 15 - 8 - 1015.0 1015.1 -
21/06:30am 27.0 - - - - SSW 15 - 8 - 1014.0 - -
21/06:00am 26.6 - - - - SSW 15 - 8 - 1014.0 1014.1 -
21/05:30am 27.0 - - - - SW 15 - 8 - 1013.0 - -
21/05:00am 26.5 - - - - SW 15 - 8 - 1013.0 1013.7 -
21/04:30am 27.0 - - - - SW 13 - 7 - 1013.0 - -
21/04:00am 26.8 - - - - WSW 15 - 8 - 1012.0 1012.8 -
21/03:30am 27.0 - - - - WSW 15 - 8 - 1012.0 - -
21/03:00am 26.8 - - - - WSW 15 - 8 - 1012.0 1012.6 -
21/02:30am 27.0 - - - - WSW 13 - 7 - 1012.0 - -
21/02:00am 26.8 - - - - WSW 13 - 7 - 1012.0 1012.7 -
21/01:30am 27.0 - - - - WSW 13 - 7 - 1013.0 - -
21/01:00am 26.8 - - - - W 13 - 7 - 1013.0 1013.3 -
21/12:30am 27.0 - - - - WSW 15 - 8 - 1013.0 - -
21/12:00am 27.0 - - - - WSW 15 17 8 9 1013.0 1013.7 -
 
Date/Time
WST
Temp
°C
App
Temp
°C
Dew
Point
Rel
Hum
%
Delta-T
°C
Wind Press
QNH
hPa
Press
MSL
hPa
Rain
since 9 am
mm
Dir
 
Spd
km/h
Gust
km/h
Spd
kts
Gust
kts
20/11:30pm 27.0 - - - - W 15 - 8 - 1014.0 - -
20/11:00pm 27.4 - - - - W 17 - 9 - 1014.0 1014.0 -
20/10:30pm 27.0 - - - - W 17 - 9 - 1014.0 - -
20/10:00pm 27.2 - - - - W 17 - 9 - 1014.0 1014.3 -
20/09:30pm 28.0 - - - - W 15 - 8 - 1014.0 - -
20/09:00pm 27.5 - - - - W 15 - 8 - 1014.0 1014.2 -
20/08:30pm 27.0 - - - - W 11 - 6 - 1014.0 - -
20/08:00pm 27.6 - - - - WSW 13 - 7 - 1014.0 1014.0 -
20/07:30pm 28.0 - - - - SW 13 - 7 - 1013.0 - -
20/07:00pm 27.6 - - - - SW 13 - 7 - 1013.0 1013.4 -
20/06:30pm 28.0 - - - - SW 13 - 7 - 1013.0 - -
20/06:00pm 27.8 - - - - SW 15 - 8 - 1012.0 1012.5 -
20/05:30pm 28.0 - - - - WSW 15 - 8 - 1012.0 - -
20/05:00pm 28.0 - - - - SW 17 - 9 - 1012.0 1011.9 -
20/04:30pm 28.0 - - - - SW 17 - 9 - 1011.0 - -
20/04:00pm 28.4 - - - - WSW 17 - 9 - 1011.0 1011.5 -
20/03:30pm 29.0 - - - - WSW 15 - 8 - 1011.0 - -
20/03:00pm 28.7 - - - - WSW 11 - 6 - 1011.0 1011.6 -
20/02:30pm 29.0 - - - - WSW 11 - 6 - 1011.0 - -
20/02:00pm 28.7 - - - - W 9 - 5 - 1011.0 1011.8 -
20/01:30pm 29.0 - - - - W 7 - 4 - 1012.0 - -
20/01:00pm 28.9 - - - - W 9 - 5 - 1012.0 1012.6 -
20/12:30pm 29.0 - - - - NW 9 - 5 - 1013.0 - -
20/12:00pm 29.0 - - - - N 11 - 6 - 1013.0 1013.6 -
20/11:30am 29.0 - - - - N 9 - 5 - 1014.0 - -
20/11:00am 29.1 - - - - NNW 9 - 5 - 1014.0 1014.7 -
20/10:30am 29.0 - - - - NW 7 - 4 - 1015.0 - -
20/10:00am 28.3 - - - - WSW 7 - 4 - 1015.0 1015.2 -
20/09:30am 28.0 - - - - W 6 - 3 - 1015.0 - -
20/09:00am 28.3 - - - - W 6 - 3 - 1015.0 1015.5 -
20/08:30am 28.0 - - - - S 6 - 3 - 1015.0 - -
20/08:00am 27.4 - - - - S 7 - 4 - 1015.0 1015.5 -
20/07:30am 27.0 - - - - S 9 - 5 - 1015.0 - -
20/07:00am 26.7 - - - - S 11 - 6 - 1014.0 1014.8 -
20/06:30am 27.0 - - - - S 13 - 7 - 1014.0 - -
20/06:00am 26.7 - - - - S 19 - 10 - 1014.0 1013.9 -
20/05:30am 27.0 - - - - S 17 - 9 - 1013.0 - -
20/05:00am 26.8 - - - - S 17 - 9 - 1013.0 1013.2 -
20/04:30am 27.0 - - - - S 20 - 11 - 1012.0 - -
20/04:00am 26.9 - - - - SSW 24 - 13 - 1012.0 1012.5 -
20/03:30am 27.0 - - - - SSW 24 - 13 - 1012.0 - -
20/03:00am 26.8 - - - - SSW 20 - 11 - 1012.0 1012.6 -
20/02:30am 27.0 - - - - SSW 13 - 7 - 1012.0 - -
20/02:00am 26.9 - - - - WSW 7 - 4 - 1013.0 1012.9 -
20/01:30am 27.0 - - - - W 7 - 4 - 1013.0 - -
20/01:00am 26.9 - - - - SW 9 - 5 - 1013.0 1013.7 -
20/12:30am 27.0 - - - - SW 9 - 5 - 1014.0 - -
20/12:00am 27.1 - - - - SW 13 - 7 - 1014.0 1014.2 -
 
Date/Time
WST
Temp
°C
App
Temp
°C
Dew
Point
Rel
Hum
%
Delta-T
°C
Wind Press
QNH
hPa
Press
MSL
hPa
Rain
since 9 am
mm
Dir
 
Spd
km/h
Gust
km/h
Spd
kts
Gust
kts
19/11:30pm 27.0 - - - - SW 13 - 7 - 1014.0 - -
19/11:00pm 27.1 - - - - WSW 15 - 8 - 1014.0 1014.7 -
19/10:30pm 27.0 - - - - WSW 17 - 9 - 1014.0 - -
19/10:00pm 27.1 - - - - SW 19 - 10 - 1014.0 1014.7 -
19/09:30pm 27.0 - - - - SW 20 - 11 - 1014.0 - -
19/09:00pm 27.0 - - - - SW 19 - 10 - 1014.0 1014.7 -
19/08:30pm 27.0 - - - - SW 19 - 10 - 1014.0 - -
19/08:00pm 27.2 - - - - SW 17 - 9 - 1014.0 1014.5 -
19/07:30pm 27.0 - - - - SW 17 - 9 - 1014.0 - -
19/07:00pm 27.4 - - - - SW 19 - 10 - 1013.0 1013.8 -
19/06:30pm 27.0 - - - - SW 17 - 9 - 1013.0 - -
19/06:00pm 27.5 - - - - SW 17 - 9 - 1013.0 1013.2 -
19/05:30pm 28.0 - - - - SSW 17 - 9 - 1012.0 - -
19/05:00pm 27.6 - - - - SW 17 - 9 - 1012.0 1012.5 -
19/04:30pm 28.0 - - - - SW 17 - 9 - 1012.0 - -
19/04:00pm 28.0 - - - - WSW 15 - 8 - 1012.0 1012.3 -
19/03:30pm 29.0 - - - - WSW 13 - 7 - 1012.0 - -
19/03:00pm 28.4 - - - - W 11 - 6 - 1012.0 1012.6 -
19/02:30pm 28.0 - - - - W 11 - 6 - 1013.0 - -
19/02:00pm 28.5 - - - - WNW 9 - 5 - 1013.0 1013.5 -
19/01:30pm 29.0 - - - - NW 9 - 5 - 1013.0 - -
19/01:00pm 29.4 - - - - NNW 9 - 5 - 1014.0 1014.3 -
19/12:30pm 29.0 - - - - N 11 - 6 - 1014.0 - -
19/12:00pm 28.9 - - - - NNW 9 - 5 - 1015.0 1015.2 -
19/11:30am 29.0 - - - - N 9 - 5 - 1015.0 - -
19/11:00am 28.1 - - - - NW 9 - 5 - 1016.0 1016.0 -
19/10:30am 29.0 - - - - N 9 - 5 - 1016.0 - -
19/10:00am 29.1 - - - - NNE 7 - 4 - 1016.0 1016.8 -
19/09:30am 28.0 - - - - NE 9 - 5 - 1017.0 - -
19/09:00am 28.6 - - - - NE 7 - 4 - 1017.0 1017.2 -
19/08:30am 28.0 - - - - NE 7 - 4 - 1017.0 - -
19/08:00am 28.2 - - - - ENE 7 - 4 - 1017.0 1016.9 -
19/07:30am 27.0 - - - - S 7 - 4 - 1016.0 - -
19/07:00am 26.8 - - - - S 9 - 5 - 1016.0 1015.9 -
19/06:30am 27.0 - - - - S 13 - 7 - 1015.0 - -
19/06:00am 26.6 - - - - S 13 - 7 - 1015.0 1014.9 -
19/05:30am 27.0 - - - - S 13 - 7 - 1014.0 - -
19/05:00am 26.3 - - - - S 15 - 8 - 1014.0 1014.1 -
19/04:30am 26.0 - - - - S 17 - 9 - 1013.0 - -
19/04:00am 26.3 - - - - SSW 17 - 9 - 1013.0 1013.6 -
19/03:30am 26.0 - - - - SSW 11 - 6 - 1013.0 - -
19/03:00am 26.3 - - - - S 7 - 4 - 1013.0 1013.5 -
19/02:30am 26.0 - - - - S 7 - 4 - 1013.0 - -
19/02:00am 26.2 - - - - S 9 - 5 - 1013.0 1013.7 -
19/01:30am 27.0 - - - - S 9 - 5 - 1014.0 - -
19/01:00am 26.5 - - - - SSW 9 - 5 - 1014.0 1014.1 -
19/12:30am 27.0 - - - - SW 11 - 6 - 1014.0 - -
19/12:00am 26.3 - - - - SW 11 - 6 - 1014.0 1014.4 -
 
Date/Time
WST
Temp
°C
App
Temp
°C
Dew
Point
Rel
Hum
%
Delta-T
°C
Wind Press
QNH
hPa
Press
MSL
hPa
Rain
since 9 am
mm
Dir
 
Spd
km/h
Gust
km/h
Spd
kts
Gust
kts
18/11:30pm 26.0 - - - - SW 11 - 6 - 1014.0 - -
18/11:00pm 26.3 - - - - SW 9 - 5 - 1015.0 1015.0 -
18/10:30pm 26.0 - - - - SW 9 - 5 - 1015.0 - -
18/10:00pm 26.4 - - - - SW 9 - 5 - 1015.0 1015.3 -
18/09:30pm 27.0 - - - - SW 9 - 5 - 1015.0 - -
18/09:00pm 26.4 - - - - WSW 9 - 5 - 1015.0 1015.2 -
18/08:30pm 26.0 - - - - WSW 4 - 2 - 1015.0 - -
18/08:00pm 26.3 - - - - CALM 0 - 0 - 1015.0 1015.1 -
18/07:30pm 26.0 - - - - CALM 0 - 0 - 1015.0 - -
18/07:00pm 26.5 - - - - CALM 0 - 0 - 1014.0 1014.4 -
18/06:30pm 26.0 - - - - S 4 - 2 - 1014.0 - -
18/06:00pm 26.6 - - - - S 7 - 4 - 1013.0 1013.8 -
18/05:30pm 27.0 - - - - SSE 7 - 4 - 1013.0 - -
18/05:00pm 27.0 - - - - ESE 7 - 4 - 1013.0 1013.1 -
18/04:30pm 28.0 - - - - E 9 - 5 - 1013.0 - -
18/04:00pm 27.4 - - - - ESE 11 - 6 - 1013.0 1013.0 -

Other Formats:

Comma delimited format used in spreadsheet applications
http://www.bom.gov.au/fwo/IDW60801/IDW60801.94103.axf

JavaScript Object Notation format (JSON) in row-major order
http://www.bom.gov.au/fwo/IDW60801/IDW60801.94103.json